createdAt,value
2022-08-07T00:01:44.755Z,95676.75
2022-08-07T00:04:09.229Z,95675.19
2022-08-07T00:06:45.541Z,95673.78
2022-08-07T00:09:22.597Z,95662.63
2022-08-07T00:11:55.877Z,95674.03
2022-08-07T00:14:31.020Z,95679.16
2022-08-07T00:17:03.041Z,95668.97
2022-08-07T00:19:34.103Z,95668.00
2022-08-07T00:22:24.847Z,95672.94
2022-08-07T00:25:16.476Z,95671.13
2022-08-07T00:27:53.774Z,95668.63
2022-08-07T00:30:27.487Z,95666.44
2022-08-07T00:33:01.105Z,95675.81
2022-08-07T00:35:30.513Z,95665.03
2022-08-07T00:37:59.461Z,95659.13
2022-08-07T00:40:40.079Z,95665.47
2022-08-07T00:44:01.275Z,95669.94
2022-08-07T00:46:02.235Z,95659.19
2022-08-07T00:48:32.105Z,95667.13
2022-08-07T00:51:01.268Z,95665.72
2022-08-07T00:53:38.980Z,95679.19
2022-08-07T00:56:17.237Z,95675.94
2022-08-07T00:58:47.456Z,95672.66
2022-08-07T01:01:22.880Z,95660.44
2022-08-07T01:03:57.350Z,95664.94
2022-08-07T01:06:31.745Z,95652.09
2022-08-07T01:09:01.509Z,95662.50
2022-08-07T01:12:10.298Z,95666.41
2022-08-07T01:14:28.121Z,95670.69
2022-08-07T01:16:57.892Z,95667.25
2022-08-07T01:19:32.268Z,95667.03
2022-08-07T01:22:00.742Z,95653.22
2022-08-07T01:24:35.955Z,95665.44
2022-08-07T01:27:04.552Z,95668.31
2022-08-07T01:29:34.356Z,95669.94
2022-08-07T01:32:05.297Z,95663.00
2022-08-07T01:34:34.064Z,95664.66
2022-08-07T01:37:12.182Z,95653.03
2022-08-07T01:39:46.456Z,95650.78
2022-08-07T01:42:39.490Z,95656.69
2022-08-07T01:45:37.322Z,95654.25
2022-08-07T01:48:29.674Z,95661.56
2022-08-07T01:52:02.129Z,95657.91
2022-08-07T01:54:12.514Z,95654.41
2022-08-07T01:56:57.940Z,95664.22
2022-08-07T01:59:56.311Z,95660.94
2022-08-07T02:03:12.498Z,95655.47
2022-08-07T02:05:48.107Z,95661.78
2022-08-07T02:08:26.804Z,95660.75
2022-08-07T02:10:58.661Z,95657.28
2022-08-07T02:13:56.739Z,95649.56
2022-08-07T02:16:28.532Z,95644.88
2022-08-07T02:20:07.220Z,95635.13
2022-08-07T02:22:02.746Z,95641.88
2022-08-07T02:24:30.591Z,95638.00
2022-08-07T02:27:01.469Z,95641.09
2022-08-07T02:29:32.733Z,95639.06
2022-08-07T02:32:04.493Z,95636.81
2022-08-07T02:34:33.198Z,95637.25
2022-08-07T02:37:08.266Z,95642.16
2022-08-07T02:39:43.477Z,95637.25
2022-08-07T02:42:32.793Z,95633.63
2022-08-07T02:45:07.624Z,95632.78
2022-08-07T02:47:52.233Z,95637.09
2022-08-07T02:50:20.988Z,95646.06
2022-08-07T02:53:06.072Z,95635.84
2022-08-07T02:56:02.227Z,95634.44
2022-08-07T02:58:28.534Z,95628.72
2022-08-07T03:01:04.433Z,95632.41
2022-08-07T03:03:50.259Z,95628.16
2022-08-07T03:06:33.189Z,95626.69
2022-08-07T03:09:05.331Z,95625.50
2022-08-07T03:11:38.584Z,95621.84
2022-08-07T03:14:10.156Z,95621.84
2022-08-07T03:16:39.086Z,95624.69
2022-08-07T03:19:10.103Z,95620.00
2022-08-07T03:21:37.767Z,95614.72
2022-08-07T03:24:18.410Z,95613.91
2022-08-07T03:26:59.157Z,95611.03
2022-08-07T03:29:46.190Z,95618.19
2022-08-07T03:32:24.254Z,95610.03
2022-08-07T03:35:17.113Z,95615.31
2022-08-07T03:37:53.926Z,95605.97
2022-08-07T03:40:27.528Z,95611.88
2022-08-07T03:43:04.853Z,95609.63
2022-08-07T03:45:43.731Z,95619.41
2022-08-07T03:48:18.271Z,95617.78
2022-08-07T03:50:52.113Z,95615.31
2022-08-07T03:53:50.188Z,95608.44
2022-08-07T03:56:18.612Z,95615.13
2022-08-07T03:59:10.115Z,95610.66
2022-08-07T04:01:45.367Z,95608.44
2022-08-07T04:04:18.593Z,95604.97
2022-08-07T04:06:50.886Z,95603.34
2022-08-07T04:09:23.038Z,95600.91
2022-08-07T04:12:28.231Z,95602.72
2022-08-07T04:14:48.983Z,95601.94
2022-08-07T04:17:20.970Z,95607.00
2022-08-07T04:19:53.968Z,95614.72
2022-08-07T04:22:29.530Z,95613.72
2022-08-07T04:25:03.540Z,95619.84
2022-08-07T04:27:44.341Z,95620.03
2022-08-07T04:30:21.500Z,95620.41
2022-08-07T04:33:19.326Z,95620.81
2022-08-07T04:35:50.940Z,95620.63
2022-08-07T04:38:20.686Z,95626.31
2022-08-07T04:40:52.970Z,95626.09
2022-08-07T04:44:12.336Z,95629.13
2022-08-07T04:46:59.669Z,95622.63
2022-08-07T04:50:16.132Z,95624.47
2022-08-07T04:53:40.126Z,95625.06
2022-08-07T04:58:13.694Z,95620.22
2022-08-07T05:00:12.559Z,95627.50
2022-08-07T05:03:49.885Z,95624.69
2022-08-07T05:06:19.374Z,95626.09
2022-08-07T05:09:01.520Z,95623.44
2022-08-07T05:11:57.937Z,95623.22
2022-08-07T05:14:52.324Z,95637.88
2022-08-07T05:17:52.528Z,95631.34
2022-08-07T05:20:11.811Z,95629.09
2022-08-07T05:22:43.614Z,95638.22
2022-08-07T05:25:25.719Z,95639.63
2022-08-07T05:28:16.424Z,95642.63
2022-08-07T05:30:49.964Z,95641.38
2022-08-07T05:33:20.803Z,95652.50
2022-08-07T05:35:52.055Z,95652.44
2022-08-07T05:39:00.332Z,95648.28
2022-08-07T05:41:14.393Z,95640.94
2022-08-07T05:44:11.960Z,95644.56
2022-08-07T05:46:47.070Z,95649.75
2022-08-07T05:49:23.727Z,95650.06
2022-08-07T05:51:52.326Z,95652.84
2022-08-07T05:54:30.744Z,95657.88
2022-08-07T05:57:12.532Z,95650.25
2022-08-07T05:59:57.324Z,95653.78
2022-08-07T06:02:30.629Z,95657.16
2022-08-07T06:05:10.939Z,95639.13
2022-08-07T06:08:29.631Z,95655.28
2022-08-07T06:10:32.653Z,95642.28
2022-08-07T06:13:03.813Z,95641.53
2022-08-07T06:15:38.939Z,95636.28
2022-08-07T06:18:13.903Z,95635.31
2022-08-07T06:20:50.969Z,95639.06
2022-08-07T06:24:38.656Z,95644.22
2022-08-07T06:26:22.435Z,95643.47
2022-08-07T06:28:59.772Z,95638.97
2022-08-07T06:31:38.830Z,95653.13
2022-08-07T06:34:19.680Z,95647.22
2022-08-07T06:36:52.028Z,95650.97
2022-08-07T06:40:13.647Z,95646.94
2022-08-07T06:42:35.150Z,95644.25
2022-08-07T06:45:19.278Z,95647.16
2022-08-07T06:47:58.609Z,95644.72
2022-08-07T06:50:47.814Z,95647.91
2022-08-07T06:55:28.139Z,95643.28
2022-08-07T06:56:16.514Z,95638.84
2022-08-07T07:00:14.595Z,95636.41
2022-08-07T07:01:48.799Z,95634.66
2022-08-07T07:04:32.446Z,95633.50
2022-08-07T07:07:18.831Z,95637.41
2022-08-07T07:09:51.185Z,95627.16
2022-08-07T07:12:48.716Z,95624.72
2022-08-07T07:15:32.588Z,95635.34
2022-08-07T07:18:14.657Z,95632.88
2022-08-07T07:21:13.446Z,95625.31
2022-08-07T07:24:09.587Z,95627.13
2022-08-07T07:26:37.725Z,95626.81
2022-08-07T07:29:38.674Z,95622.69
2022-08-07T07:32:10.553Z,95624.47
2022-08-07T07:34:48.568Z,95619.88
2022-08-07T07:37:56.141Z,95610.41
2022-08-07T07:40:10.349Z,95615.38
2022-08-07T07:42:46.975Z,95614.72
2022-08-07T07:45:22.731Z,95611.88
2022-08-07T07:48:13.001Z,95607.16
2022-08-07T07:51:02.273Z,95608.34
2022-08-07T07:53:31.716Z,95606.56
2022-08-07T07:56:03.637Z,95601.84
2022-08-07T07:58:36.864Z,95612.34
2022-08-07T08:02:01.962Z,95605.22
2022-08-07T08:04:09.943Z,95613.53
2022-08-07T08:06:50.761Z,95604.53
2022-08-07T08:09:24.575Z,95608.63
2022-08-07T08:12:02.200Z,95596.69
2022-08-07T08:14:36.146Z,95600.28
2022-08-07T08:18:36.912Z,95602.84
2022-08-07T08:20:17.681Z,95597.59
2022-08-07T08:23:11.242Z,95593.41
2022-08-07T08:26:03.325Z,95591.88
2022-08-07T08:28:44.757Z,95588.50
2022-08-07T08:31:30.292Z,95578.41
2022-08-07T08:34:10.680Z,95580.88
2022-08-07T08:36:58.029Z,95579.34
2022-08-07T08:39:39.262Z,95585.59
2022-08-07T08:42:41.416Z,95592.06
2022-08-07T08:46:02.240Z,95597.50
2022-08-07T08:49:10.599Z,95589.03
2022-08-07T08:52:14.268Z,95591.47
2022-08-07T08:54:56.482Z,95594.81
2022-08-07T08:57:38.084Z,95591.38
2022-08-07T09:00:09.266Z,95590.84
2022-08-07T09:02:39.218Z,95589.31
2022-08-07T09:05:42.600Z,95582.41
2022-08-07T09:09:20.979Z,95573.06
2022-08-07T09:12:30.555Z,95577.16
2022-08-07T09:16:25.603Z,95579.03
2022-08-07T09:18:58.511Z,95575.81
2022-08-07T09:22:22.389Z,95569.69
2022-08-07T09:24:58.831Z,95575.31
2022-08-07T09:27:30.291Z,95567.75
2022-08-07T09:30:08.757Z,95569.09
2022-08-07T09:32:57.701Z,95579.03
2022-08-07T09:36:05.013Z,95577.66
2022-08-07T09:39:11.501Z,95564.22
2022-08-07T09:42:12.897Z,95562.84
2022-08-07T09:47:24.969Z,95565.53
2022-08-07T09:48:21.029Z,95557.72
2022-08-07T09:52:15.381Z,95563.09
2022-08-07T09:54:18.851Z,95555.84
2022-08-07T09:57:30.285Z,95562.00
2022-08-07T10:00:07.654Z,95551.84
2022-08-07T10:02:55.883Z,95555.09
2022-08-07T10:05:59.623Z,95546.78
2022-08-07T10:08:39.889Z,95529.09
2022-08-07T10:12:03.364Z,95529.34
2022-08-07T10:15:23.195Z,95532.25
2022-08-07T10:18:42.330Z,95536.28
2022-08-07T10:22:14.101Z,95534.38
2022-08-07T10:24:46.103Z,95532.19
2022-08-07T10:27:59.294Z,95518.72
2022-08-07T10:31:15.034Z,95517.59
2022-08-07T10:34:31.864Z,95507.66
2022-08-07T10:38:00.669Z,95517.31
2022-08-07T10:40:33.604Z,95507.94
2022-08-07T10:43:34.757Z,95507.34
2022-08-07T10:46:14.511Z,95496.59
2022-08-07T10:49:02.839Z,95493.63
2022-08-07T10:52:13.426Z,95494.38
2022-08-07T10:55:21.232Z,95494.63
2022-08-07T10:58:16.636Z,95502.16
2022-08-07T11:01:18.850Z,95492.72
2022-08-07T11:04:31.530Z,95491.59
2022-08-07T11:07:59.609Z,95484.84
2022-08-07T11:10:27.580Z,95489.63
2022-08-07T11:14:42.320Z,95475.06
2022-08-07T11:16:32.706Z,95469.38
2022-08-07T11:19:11.904Z,95471.75
2022-08-07T11:21:51.405Z,95465.53
2022-08-07T11:24:26.118Z,95469.78
2022-08-07T11:27:17.804Z,95471.34
2022-08-07T11:30:18.547Z,95463.22
2022-08-07T11:32:52.883Z,95457.50
2022-08-07T11:35:36.819Z,95455.53
2022-08-07T11:38:32.165Z,95451.47
2022-08-07T11:41:43.566Z,95440.16
2022-08-07T11:44:52.666Z,95446.84
2022-08-07T11:48:13.700Z,95444.63
2022-08-07T11:51:05.187Z,95447.81
2022-08-07T11:54:00.770Z,95445.00
2022-08-07T11:57:12.835Z,95454.06
2022-08-07T12:00:10.622Z,95441.34
2022-08-07T12:03:45.165Z,95444.69
2022-08-07T12:06:36.988Z,95430.28
2022-08-07T12:09:37.036Z,95434.94
2022-08-07T12:12:12.175Z,95421.66
2022-08-07T12:15:17.196Z,95416.72
2022-08-07T12:18:29.855Z,95426.59
2022-08-07T12:21:09.004Z,95430.28
2022-08-07T12:24:37.730Z,95426.97
2022-08-07T12:27:16.911Z,95422.63
2022-08-07T12:30:00.254Z,95412.88
2022-08-07T12:32:39.861Z,95406.47
2022-08-07T12:35:12.330Z,95407.63
2022-08-07T12:38:11.467Z,95409.25
2022-08-07T12:40:50.881Z,95402.34
2022-08-07T12:44:01.576Z,95401.56
2022-08-07T12:46:41.452Z,95393.00
2022-08-07T12:49:51.462Z,95398.72
2022-08-07T12:52:42.344Z,95389.78
2022-08-07T12:56:03.475Z,95396.09
2022-08-07T12:58:40.263Z,95388.88
2022-08-07T13:01:22.905Z,95394.81
2022-08-07T13:04:13.634Z,95384.56
2022-08-07T13:07:17.931Z,95385.91
2022-08-07T13:10:39.683Z,95376.78
2022-08-07T13:13:48.606Z,95382.69
2022-08-07T13:16:52.442Z,95379.28
2022-08-07T13:19:34.987Z,95380.00
2022-08-07T13:22:32.884Z,95373.00
2022-08-07T13:25:23.938Z,95367.25
2022-08-07T13:28:14.349Z,95364.00
2022-08-07T13:31:01.986Z,95366.59
2022-08-07T13:34:32.907Z,95360.50
2022-08-07T13:37:20.177Z,95361.16
2022-08-07T13:40:36.074Z,95359.53
2022-08-07T13:42:58.884Z,95356.00
2022-08-07T13:46:11.755Z,95352.75
2022-08-07T13:48:27.565Z,95350.69
2022-08-07T13:51:26.970Z,95344.53
2022-08-07T13:54:05.849Z,95338.41
2022-08-07T13:56:41.175Z,95337.69
2022-08-07T13:59:31.157Z,95330.25
2022-08-07T14:02:13.271Z,95324.63
2022-08-07T14:05:00.468Z,95325.94
2022-08-07T14:08:00.566Z,95326.44
2022-08-07T14:10:42.425Z,95317.00
2022-08-07T14:13:18.021Z,95322.94
2022-08-07T14:15:54.147Z,95327.25
2022-08-07T14:18:31.118Z,95318.19
2022-08-07T14:22:01.809Z,95330.63
2022-08-07T14:24:35.719Z,95315.06
2022-08-07T14:28:11.543Z,95326.22
2022-08-07T14:33:01.670Z,95327.84
2022-08-07T14:35:44.996Z,95312.44
2022-08-07T14:38:30.386Z,95318.94
2022-08-07T14:41:33.829Z,95326.38
2022-08-07T14:44:19.418Z,95324.50
2022-08-07T14:46:56.543Z,95323.75
2022-08-07T14:52:28.890Z,95320.72
2022-08-07T14:54:59.427Z,95318.13
2022-08-07T14:57:55.161Z,95304.25
2022-08-07T15:00:20.678Z,95310.47
2022-08-07T15:02:56.985Z,95305.28
2022-08-07T15:05:26.701Z,95307.00
2022-08-07T15:07:56.076Z,95308.25
2022-08-07T15:10:30.025Z,95304.97
2022-08-07T15:16:02.849Z,95308.88
2022-08-07T15:18:45.281Z,95308.25
2022-08-07T15:21:58.847Z,95307.25
2022-08-07T15:25:15.379Z,95303.78
2022-08-07T15:27:05.694Z,95300.19
2022-08-07T15:30:10.104Z,95306.44
2022-08-07T15:32:39.732Z,95304.50
2022-08-07T15:36:00.689Z,95303.41
2022-08-07T15:38:30.426Z,95297.31
2022-08-07T15:41:23.072Z,95297.69
2022-08-07T15:44:04.174Z,95304.50
2022-08-07T15:46:45.871Z,95303.31
2022-08-07T15:50:04.234Z,95304.06
2022-08-07T15:52:30.526Z,95302.72
2022-08-07T15:55:08.582Z,95303.00
2022-08-07T15:57:48.227Z,95295.81
2022-08-07T16:00:31.469Z,95291.44
2022-08-07T16:03:20.977Z,95292.56
2022-08-07T16:05:52.828Z,95296.09
2022-08-07T16:08:30.228Z,95300.25
2022-08-07T16:11:27.126Z,95294.28
2022-08-07T16:14:33.411Z,95292.34
2022-08-07T16:18:00.945Z,95289.63
2022-08-07T16:20:55.209Z,95287.41
2022-08-07T16:24:03.283Z,95292.72
2022-08-07T16:26:58.918Z,95285.94
2022-08-07T16:30:32.081Z,95304.38
2022-08-07T16:34:01.508Z,95294.69
2022-08-07T16:36:31.185Z,95294.19
2022-08-07T16:39:40.691Z,95293.53
2022-08-07T16:42:31.659Z,95295.16
2022-08-07T16:46:33.018Z,95290.88
2022-08-07T16:48:28.431Z,95302.59
2022-08-07T16:51:54.645Z,95299.28
2022-08-07T16:54:59.083Z,95298.34
2022-08-07T16:58:15.840Z,95301.63
2022-08-07T17:01:10.193Z,95300.91
2022-08-07T17:04:12.546Z,95306.47
2022-08-07T17:07:06.696Z,95305.03
2022-08-07T17:10:08.015Z,95305.16
2022-08-07T17:13:16.556Z,95313.88
2022-08-07T17:16:06.340Z,95313.41
2022-08-07T17:19:01.508Z,95310.56
2022-08-07T17:21:51.534Z,95315.59
2022-08-07T17:24:40.648Z,95313.28
2022-08-07T17:27:19.598Z,95315.38
2022-08-07T17:30:15.892Z,95319.69
2022-08-07T17:34:08.266Z,95315.56
2022-08-07T17:36:03.517Z,95314.78
2022-08-07T17:38:52.377Z,95315.84
2022-08-07T17:42:04.932Z,95307.72
2022-08-07T17:44:45.193Z,95304.28
2022-08-07T17:47:42.867Z,95316.94
2022-08-07T17:50:46.979Z,95311.59
2022-08-07T17:54:00.574Z,95321.78
2022-08-07T17:56:49.803Z,95316.97
2022-08-07T17:59:35.954Z,95314.50
2022-08-07T18:02:36.338Z,95318.50
2022-08-07T18:05:24.973Z,95321.06
2022-08-07T18:08:16.442Z,95326.47
2022-08-07T18:12:06.743Z,95324.00
2022-08-07T18:14:19.983Z,95325.59
2022-08-07T18:18:46.565Z,95327.97
2022-08-07T18:21:09.698Z,95334.06
2022-08-07T18:23:43.194Z,95335.31
2022-08-07T18:26:16.376Z,95338.94
2022-08-07T18:30:06.694Z,95349.22
2022-08-07T18:32:31.486Z,95352.81
2022-08-07T18:35:24.185Z,95352.06
2022-08-07T18:38:56.828Z,95354.22
2022-08-07T18:41:20.699Z,95352.06
2022-08-07T18:44:32.639Z,95352.88
2022-08-07T18:47:44.976Z,95354.22
2022-08-07T18:50:39.618Z,95356.34
2022-08-07T18:53:41.080Z,95363.81
2022-08-07T18:56:35.493Z,95368.59
2022-08-07T18:59:47.473Z,95376.09
2022-08-07T19:02:46.406Z,95370.69
2022-08-07T19:06:02.462Z,95377.09
2022-08-07T19:08:26.737Z,95386.97
2022-08-07T19:11:35.561Z,95381.59
2022-08-07T19:14:32.358Z,95389.63
2022-08-07T19:17:15.617Z,95375.66
2022-08-07T19:20:29.357Z,95392.78
2022-08-07T19:23:58.022Z,95394.94
2022-08-07T19:26:30.154Z,95393.56
2022-08-07T19:30:58.000Z,95399.72
2022-08-07T19:32:08.324Z,95407.75
2022-08-07T19:34:47.808Z,95404.53
2022-08-07T19:37:19.639Z,95405.88
2022-08-07T19:40:11.227Z,95404.03
2022-08-07T19:42:43.148Z,95409.13
2022-08-07T19:46:01.171Z,95409.41
2022-08-07T19:48:18.799Z,95412.63
2022-08-07T19:50:53.571Z,95404.59
2022-08-07T19:54:31.937Z,95405.69
2022-08-07T19:57:51.866Z,95405.94
2022-08-07T19:59:03.173Z,95410.53
2022-08-07T20:01:52.237Z,95404.91
2022-08-07T20:04:31.928Z,95409.19
2022-08-07T20:07:10.585Z,95409.44
2022-08-07T20:10:34.350Z,95412.94
2022-08-07T20:12:38.623Z,95408.91
2022-08-07T20:15:22.058Z,95411.03
2022-08-07T20:18:01.777Z,95414.47
2022-08-07T20:20:33.870Z,95407.75
2022-08-07T20:23:10.820Z,95420.31
2022-08-07T20:25:53.132Z,95419.50
2022-08-07T20:28:29.597Z,95428.03
2022-08-07T20:30:58.223Z,95426.94
2022-08-07T20:33:38.347Z,95428.50
2022-08-07T20:36:08.741Z,95438.38
2022-08-07T20:38:59.327Z,95428.94
2022-08-07T20:41:34.143Z,95435.13
2022-08-07T20:44:12.317Z,95435.38
2022-08-07T20:46:43.731Z,95442.59
2022-08-07T20:50:00.966Z,95446.31
2022-08-07T20:52:29.970Z,95440.94
2022-08-07T20:55:11.512Z,95447.09
2022-08-07T20:58:02.742Z,95444.44
2022-08-07T21:00:44.591Z,95451.63
2022-08-07T21:03:19.105Z,95450.84
2022-08-07T21:06:01.302Z,95448.16
2022-08-07T21:08:43.883Z,95445.72
2022-08-07T21:11:21.883Z,95446.56
2022-08-07T21:14:16.595Z,95448.41
2022-08-07T21:18:00.659Z,95457.50
2022-08-07T21:19:51.809Z,95448.13
2022-08-07T21:22:28.985Z,95458.84
2022-08-07T21:25:42.655Z,95450.25
2022-08-07T21:28:47.541Z,95448.63
2022-08-07T21:31:31.272Z,95454.47
2022-08-07T21:34:32.052Z,95452.06
2022-08-07T21:37:19.896Z,95457.41
2022-08-07T21:40:18.933Z,95459.25
2022-08-07T21:43:14.851Z,95457.34
2022-08-07T21:46:24.218Z,95462.41
2022-08-07T21:49:02.696Z,95466.13
2022-08-07T21:51:54.847Z,95468.25
2022-08-07T21:54:34.799Z,95469.84
2022-08-07T21:57:39.340Z,95469.06
2022-08-07T22:00:22.281Z,95462.59
2022-08-07T22:03:17.398Z,95471.44
2022-08-07T22:06:30.599Z,95465.22
2022-08-07T22:09:12.892Z,95469.25
2022-08-07T22:12:05.544Z,95475.66
2022-08-07T22:15:00.175Z,95463.88
2022-08-07T22:17:37.373Z,95478.84
2022-08-07T22:20:41.417Z,95472.94
2022-08-07T22:23:21.646Z,95475.06
2022-08-07T22:26:05.951Z,95476.38
2022-08-07T22:28:53.091Z,95472.91
2022-08-07T22:32:00.066Z,95469.06
2022-08-07T22:34:56.959Z,95468.53
2022-08-07T22:38:04.389Z,95466.09
2022-08-07T22:41:08.969Z,95478.38
2022-08-07T22:43:56.344Z,95483.44
2022-08-07T22:47:06.491Z,95484.75
2022-08-07T22:50:36.489Z,95483.41
2022-08-07T22:54:06.326Z,95481.78
2022-08-07T22:57:17.020Z,95478.28
2022-08-07T23:00:18.390Z,95478.81
2022-08-07T23:03:09.094Z,95482.31
2022-08-07T23:06:07.244Z,95478.81
2022-08-07T23:10:05.453Z,95480.38
2022-08-07T23:12:42.936Z,95475.28
2022-08-07T23:16:05.908Z,95471.25
2022-08-07T23:19:38.952Z,95469.88
2022-08-07T23:22:34.023Z,95473.84
2022-08-07T23:25:57.890Z,95459.88
2022-08-07T23:29:43.454Z,95471.66
2022-08-07T23:34:19.605Z,95472.13
2022-08-07T23:35:38.796Z,95467.78
2022-08-07T23:39:01.630Z,95475.81
2022-08-07T23:41:47.700Z,95466.44
2022-08-07T23:46:01.432Z,95463.94
2022-08-07T23:48:50.400Z,95462.56
2022-08-07T23:53:05.069Z,95459.59
2022-08-07T23:54:36.219Z,95453.72
2022-08-07T23:57:42.201Z,95449.66
